Time;durP1;ratioP1;P1;durP2;ratioP2;P2;SDS_P1;SDS_P2;PMS_P1;PMS_P2;Temp;Humidity;BMP_temperature;BMP_pressure;BME280_temperature;BME280_humidity;BME280_pressure;Samples;Min_cycle;Max_cycle;Signal;HPM_P1;HPM_P2
2022/03/14 00:01:52;;;;;;;1.40;0.90;;;;;;;10.29;nan;101592.84;5091495;28;20027;-60
2022/03/14 00:04:17;;;;;;;1.40;1.30;;;;;;;10.25;nan;101598.72;5091124;28;20511;-61
2022/03/14 00:06:48;;;;;;;1.45;1.35;;;;;;;10.23;nan;101623.66;5091465;28;20108;-61
2022/03/14 00:09:14;;;;;;;1.30;1.20;;;;;;;10.20;nan;101613.16;5091556;28;20028;-62
2022/03/14 00:11:39;;;;;;;1.65;1.50;;;;;;;10.18;nan;101617.41;5091242;28;20028;-61
2022/03/14 00:14:08;;;;;;;1.55;1.45;;;;;;;10.14;nan;101620.66;5090943;28;20433;-61
2022/03/14 00:16:42;;;;;;;1.23;1.13;;;;;;;10.16;nan;101627.69;5090876;28;20031;-61
2022/03/14 00:19:07;;;;;;;1.55;1.30;;;;;;;10.13;nan;101624.06;5091146;28;20472;-62
2022/03/14 00:21:38;;;;;;;1.55;1.42;;;;;;;10.10;nan;101629.97;5090248;28;20024;-61
2022/03/14 00:24:03;;;;;;;1.50;1.40;;;;;;;10.06;nan;101628.94;5090701;28;20062;-62
2022/03/14 00:26:29;;;;;;;2.45;1.70;;;;;;;10.08;nan;101627.31;5090709;28;20365;-60
2022/03/14 00:28:54;;;;;;;1.98;1.65;;;;;;;10.07;nan;101635.88;5090860;28;20070;-61
2022/03/14 00:31:20;;;;;;;1.60;1.50;;;;;;;10.07;nan;101638.47;5090872;28;20028;-61
2022/03/14 00:33:46;;;;;;;1.40;1.30;;;;;;;10.07;nan;101638.47;5090701;28;20286;-61
2022/03/14 00:36:11;;;;;;;2.55;1.95;;;;;;;10.07;nan;101646.25;5090941;28;20074;-61
2022/03/14 00:38:38;;;;;;;1.80;1.70;;;;;;;10.08;nan;101645.44;5091061;28;20020;-62
2022/03/14 00:41:05;;;;;;;2.47;1.50;;;;;;;10.06;nan;101652.25;5091116;28;20158;-61
2022/03/14 00:43:31;;;;;;;1.92;1.50;;;;;;;10.03;nan;101652.13;5090710;28;20085;-61
2022/03/14 00:45:57;;;;;;;1.50;1.40;;;;;;;10.02;nan;101658.09;5090641;28;20456;-62
2022/03/14 00:48:22;;;;;;;2.45;1.85;;;;;;;10.03;nan;101659.00;5090524;28;20032;-60
2022/03/14 00:50:49;;;;;;;2.15;1.80;;;;;;;9.99;nan;101660.53;5090316;28;20111;-62
2022/03/14 00:53:15;;;;;;;1.60;1.50;;;;;;;9.96;nan;101663.00;5090609;28;20024;-61
2022/03/14 00:55:40;;;;;;;1.90;1.70;;;;;;;9.97;nan;101667.34;5090684;28;20544;-62
2022/03/14 00:58:05;;;;;;;2.28;2.00;;;;;;;9.96;nan;101674.25;5090227;28;20082;-61
2022/03/14 01:00:31;;;;;;;1.90;1.65;;;;;;;9.94;nan;101675.88;5090201;28;20024;-61
2022/03/14 01:02:58;;;;;;;1.90;1.80;;;;;;;9.93;nan;101665.44;5090124;28;20084;-62
2022/03/14 01:05:23;;;;;;;1.95;1.52;;;;;;;9.92;nan;101677.50;5089966;28;20044;-61
2022/03/14 01:07:48;;;;;;;2.30;2.10;;;;;;;9.91;nan;101685.19;5090418;28;20038;-61
2022/03/14 01:10:14;;;;;;;2.67;2.28;;;;;;;9.85;nan;101690.94;5090232;28;20339;-61
2022/03/14 01:12:39;;;;;;;2.00;1.80;;;;;;;9.82;nan;101693.41;5090002;28;20035;-61
2022/03/14 01:15:05;;;;;;;2.92;2.05;;;;;;;9.77;nan;101695.75;5090330;28;20035;-61
2022/03/14 01:17:31;;;;;;;2.13;1.92;;;;;;;9.73;nan;101688.66;5090254;28;20281;-62
2022/03/14 01:19:56;;;;;;;1.60;1.50;;;;;;;9.74;nan;101703.38;5090105;28;20020;-61
2022/03/14 01:22:21;;;;;;;2.20;2.00;;;;;;;9.72;nan;101698.13;5090016;28;20430;-62
2022/03/14 01:24:47;;;;;;;2.10;1.90;;;;;;;9.73;nan;101704.19;5089714;28;20472;-62
2022/03/14 01:27:12;;;;;;;3.20;1.90;;;;;;;9.72;nan;101694.63;5089937;28;20039;-61
2022/03/14 01:29:38;;;;;;;2.92;1.92;;;;;;;9.75;nan;101709.44;5071614;28;20032;-61
2022/03/14 01:32:04;;;;;;;1.83;1.67;;;;;;;9.73;nan;101707.66;5089796;28;20032;-62
2022/03/14 01:34:30;;;;;;;3.50;2.00;;;;;;;9.72;nan;101717.94;5088703;28;20031;-61
2022/03/14 01:36:56;;;;;;;1.95;1.75;;;;;;;9.71;nan;101711.00;5089559;28;20036;-61
2022/03/14 01:39:21;;;;;;;2.22;2.05;;;;;;;9.70;nan;101716.97;5089771;28;20028;-61
2022/03/14 01:41:47;;;;;;;2.67;1.83;;;;;;;9.70;nan;101716.97;5089647;28;20526;-61
2022/03/14 01:44:12;;;;;;;2.10;1.90;;;;;;;9.68;nan;101718.56;5089393;28;20116;-62
2022/03/14 01:46:37;;;;;;;2.30;2.10;;;;;;;9.69;nan;101715.19;5089699;28;20122;-61
2022/03/14 01:49:04;;;;;;;2.20;2.00;;;;;;;9.69;nan;101713.50;5089693;28;20028;-62
2022/03/14 01:51:30;;;;;;;2.15;1.90;;;;;;;9.67;nan;101709.06;5089708;28;20028;-62
2022/03/14 01:53:56;;;;;;;2.30;2.10;;;;;;;9.64;nan;101724.44;5089555;28;20020;-61
2022/03/14 01:56:22;;;;;;;1.83;1.50;;;;;;;9.61;nan;101728.63;5089530;28;20028;-62
2022/03/14 01:58:48;;;;;;;2.25;2.03;;;;;;;9.64;nan;101727.03;5089414;28;20106;-61
2022/03/14 02:01:13;;;;;;;2.15;1.90;;;;;;;9.63;nan;101731.31;5089876;28;20110;-61
2022/03/14 02:03:39;;;;;;;2.58;2.15;;;;;;;9.62;nan;101739.88;5089162;28;20102;-61
2022/03/14 02:06:05;;;;;;;2.40;2.20;;;;;;;9.59;nan;101735.44;5089353;28;20105;-61
2022/03/14 02:08:30;;;;;;;4.60;1.92;;;;;;;9.60;nan;101745.00;5089813;28;20059;-61
2022/03/14 02:10:55;;;;;;;2.55;2.35;;;;;;;9.56;nan;101740.47;5089201;28;20086;-61
2022/03/14 02:13:21;;;;;;;3.47;2.30;;;;;;;9.57;nan;101742.22;5089368;28;20442;-61
2022/03/14 02:15:47;;;;;;;2.47;2.28;;;;;;;9.57;nan;101742.22;5089581;28;20031;-61
2022/03/14 02:18:12;;;;;;;2.42;2.20;;;;;;;9.57;nan;101747.41;5089388;28;20074;-61
2022/03/14 02:20:37;;;;;;;2.53;2.33;;;;;;;9.55;nan;101754.19;5089314;28;20032;-61
2022/03/14 02:23:03;;;;;;;2.53;2.33;;;;;;;9.55;nan;101754.19;5089156;28;20111;-62
2022/03/14 02:25:28;;;;;;;2.63;1.98;;;;;;;9.55;nan;101756.78;5089304;28;20035;-62
2022/03/14 02:27:54;;;;;;;3.10;2.80;;;;;;;9.55;nan;101758.50;5089118;28;20035;-62
2022/03/14 02:30:22;;;;;;;2.78;2.50;;;;;;;9.52;nan;101755.72;5089137;28;20031;-62
2022/03/14 02:32:48;;;;;;;2.78;2.45;;;;;;;9.50;nan;101745.31;5089223;28;20039;-61
2022/03/14 02:35:13;;;;;;;2.50;2.30;;;;;;;9.47;nan;101755.50;5089367;28;20387;-62
2022/03/14 02:37:39;;;;;;;2.53;2.33;;;;;;;9.46;nan;101756.34;5089115;28;20024;-62
2022/03/14 02:40:06;;;;;;;2.70;2.22;;;;;;;9.48;nan;101765.94;5089086;28;20513;-61
2022/03/14 02:42:32;;;;;;;2.90;2.58;;;;;;;9.46;nan;101764.09;5089012;28;20030;-61
2022/03/14 02:44:58;;;;;;;2.38;2.17;;;;;;;9.45;nan;101764.88;5090179;28;20032;-61
2022/03/14 02:47:23;;;;;;;2.47;2.28;;;;;;;9.44;nan;101768.31;5092882;28;20472;-61
2022/03/14 02:49:48;;;;;;;3.00;2.67;;;;;;;9.42;nan;101764.75;5092736;28;20027;-62
2022/03/14 02:52:14;;;;;;;2.42;2.20;;;;;;;9.40;nan;101774.13;5092661;28;20035;-61
2022/03/14 02:54:40;;;;;;;2.30;2.10;;;;;;;9.37;nan;101780.91;5092494;28;20111;-61
2022/03/14 02:57:06;;;;;;;2.67;2.47;;;;;;;9.34;nan;101787.59;5092838;28;20390;-61
2022/03/14 02:59:32;;;;;;;2.80;2.60;;;;;;;9.30;nan;101791.72;5092596;28;20038;-60
2022/03/14 03:01:57;;;;;;;2.88;2.67;;;;;;;9.29;nan;101795.16;5092822;28;20024;-62
2022/03/14 03:04:23;;;;;;;2.60;2.40;;;;;;;9.26;nan;101797.56;5092199;28;20044;-61
2022/03/14 03:06:48;;;;;;;3.08;2.78;;;;;;;9.24;nan;101804.34;5092719;28;20114;-61
2022/03/14 03:09:14;;;;;;;3.00;2.70;;;;;;;9.19;nan;101798.91;5092738;28;20024;-61
2022/03/14 03:11:40;;;;;;;2.50;2.30;;;;;;;9.16;nan;101805.63;5092625;28;20024;-61
2022/03/14 03:14:05;;;;;;;2.90;2.60;;;;;;;9.17;nan;101808.31;5092354;28;20024;-61
2022/03/14 03:16:34;;;;;;;3.50;2.35;;;;;;;9.16;nan;101813.38;5092251;28;20189;-61
2022/03/14 03:19:00;;;;;;;3.15;2.90;;;;;;;9.08;nan;101826.81;5092473;28;20114;-62
2022/03/14 03:21:25;;;;;;;2.58;2.38;;;;;;;9.06;nan;101815.50;5092380;28;20127;-61
2022/03/14 03:23:51;;;;;;;2.53;2.33;;;;;;;9.08;nan;101834.59;5091858;28;20072;-61
2022/03/14 03:26:16;;;;;;;3.50;3.00;;;;;;;9.06;nan;101840.47;5073818;28;20036;-61
2022/03/14 03:28:42;;;;;;;3.15;2.85;;;;;;;9.06;nan;101843.03;5092076;28;20055;-61
2022/03/14 03:31:13;;;;;;;2.90;2.42;;;;;;;9.04;nan;101852.41;5092237;28;20463;-60
2022/03/14 03:33:39;;;;;;;3.50;2.80;;;;;;;8.98;nan;101868.47;5091926;28;20027;-61
2022/03/14 03:36:07;;;;;;;2.78;2.58;;;;;;;8.92;nan;101857.81;5092076;28;20031;-62
2022/03/14 03:38:32;;;;;;;3.20;2.72;;;;;;;8.84;nan;101860.84;5091757;28;20024;-61
2022/03/14 03:40:58;;;;;;;4.05;3.22;;;;;;;8.79;nan;101874.31;5091755;28;20495;-61
2022/03/14 03:43:23;;;;;;;3.05;2.75;;;;;;;8.74;nan;101877.53;5091766;28;20112;-61
2022/03/14 03:45:49;;;;;;;3.47;3.17;;;;;;;8.67;nan;101882.28;5091720;28;20028;-61
2022/03/14 03:48:14;;;;;;;3.38;3.08;;;;;;;8.61;nan;101883.72;5091166;28;20451;-61
2022/03/14 03:50:40;;;;;;;3.10;2.90;;;;;;;8.59;nan;101890.50;5090907;28;20024;-61
2022/03/14 03:53:05;;;;;;;3.20;2.90;;;;;;;8.59;nan;101895.66;5091085;28;20062;-61
2022/03/14 03:55:31;;;;;;;3.90;3.00;;;;;;;8.57;nan;101901.53;5090677;28;20028;-61
2022/03/14 03:57:56;;;;;;;3.17;2.97;;;;;;;8.53;nan;101916.81;5090396;28;20560;-62
2022/03/14 04:00:22;;;;;;;3.30;3.00;;;;;;;8.57;nan;101917.03;5091054;28;20020;-61
2022/03/14 04:02:50;;;;;;;4.00;3.60;;;;;;;8.53;nan;101926.25;5091492;28;20034;-61
2022/03/14 04:05:20;;;;;;;5.13;3.88;;;;;;;8.46;nan;101913.78;5091042;28;20048;-61
2022/03/14 04:07:46;;;;;;;4.40;3.58;;;;;;;8.40;nan;101930.72;5091602;28;20415;-61
2022/03/14 04:10:15;;;;;;;4.80;3.70;;;;;;;8.35;nan;101932.16;5091204;28;20020;-61
2022/03/14 04:12:41;;;;;;;5.55;3.55;;;;;;;8.31;nan;101934.47;5091299;28;20081;-62
2022/03/14 04:15:09;;;;;;;3.88;3.55;;;;;;;8.26;nan;101944.50;5091222;28;20020;-62
2022/03/14 04:17:38;;;;;;;4.57;4.18;;;;;;;8.24;nan;101941.84;5091171;28;20031;-61
2022/03/14 04:20:08;;;;;;;5.35;4.85;;;;;;;8.23;nan;101950.41;5091017;28;20027;-61
2022/03/14 04:22:41;;;;;;;4.60;4.20;;;;;;;8.17;nan;101958.66;5090905;28;20024;-60
2022/03/14 04:25:10;;;;;;;4.50;4.10;;;;;;;8.15;nan;101960.25;5090646;28;20110;-61
2022/03/14 04:27:36;;;;;;;4.45;4.10;;;;;;;8.11;nan;101958.28;5090335;28;20032;-62
2022/03/14 04:30:01;;;;;;;5.15;4.65;;;;;;;8.08;nan;101970.16;5090399;28;20034;-60
2022/03/14 04:32:27;;;;;;;5.35;4.95;;;;;;;8.07;nan;101958.91;5090362;28;20024;-60
2022/03/14 04:34:53;;;;;;;5.63;5.13;;;;;;;8.05;nan;101968.25;5090188;28;20349;-61
2022/03/14 04:37:18;;;;;;;5.30;4.80;;;;;;;8.04;nan;101966.50;5090069;28;20039;-60
2022/03/14 04:39:44;;;;;;;5.78;5.25;;;;;;;8.04;nan;101979.41;5090229;28;20412;-61
2022/03/14 04:42:10;;;;;;;6.18;5.63;;;;;;;7.96;nan;101978.00;5090478;28;20031;-60
2022/03/14 04:44:36;;;;;;;6.63;6.10;;;;;;;7.93;nan;101983.91;5072150;28;20020;-61
2022/03/14 04:47:02;;;;;;;6.68;6.15;;;;;;;7.90;nan;101983.69;5090588;28;20078;-61
2022/03/14 04:49:28;;;;;;;6.22;5.70;;;;;;;7.91;nan;101993.22;5090426;28;20043;-61
2022/03/14 04:51:55;;;;;;;6.03;5.53;;;;;;;7.88;nan;101988.75;5090579;28;20024;-61
2022/03/14 04:54:21;;;;;;;7.25;6.25;;;;;;;7.88;nan;101995.63;5090437;28;20391;-60
2022/03/14 04:56:46;;;;;;;6.20;5.60;;;;;;;7.91;nan;102003.56;5090403;28;20024;-62
2022/03/14 04:59:12;;;;;;;8.68;6.00;;;;;;;7.88;nan;102006.81;5072284;28;20052;-61
2022/03/14 05:01:39;;;;;;;7.03;6.22;;;;;;;7.88;nan;102006.81;5090215;28;20024;-60
2022/03/14 05:04:05;;;;;;;7.10;5.75;;;;;;;7.89;nan;102013.78;5090024;28;20535;-61
2022/03/14 05:06:32;;;;;;;6.80;6.20;;;;;;;7.90;nan;102018.13;5090465;28;20092;-61
2022/03/14 05:08:58;;;;;;;6.75;6.15;;;;;;;7.88;nan;102026.59;5089872;28;20030;-61
2022/03/14 05:11:23;;;;;;;7.30;6.63;;;;;;;7.87;nan;102032.53;5090015;28;20111;-61
2022/03/14 05:13:48;;;;;;;7.70;6.95;;;;;;;7.87;nan;102040.28;5090131;28;20031;-61
2022/03/14 05:16:14;;;;;;;7.28;6.60;;;;;;;7.85;nan;102040.19;5090345;28;20078;-61
2022/03/14 05:18:39;;;;;;;7.25;6.50;;;;;;;7.85;nan;102047.94;5090046;28;20028;-62
2022/03/14 05:21:04;;;;;;;7.35;6.65;;;;;;;7.86;nan;102054.00;5089882;28;20082;-61
2022/03/14 05:23:30;;;;;;;7.93;7.18;;;;;;;7.86;nan;102057.44;5089703;28;20382;-60
2022/03/14 05:25:56;;;;;;;8.27;7.43;;;;;;;7.87;nan;102061.84;5089819;28;20028;-62
2022/03/14 05:28:22;;;;;;;8.32;7.53;;;;;;;7.90;nan;102066.28;5089617;28;20059;-62
2022/03/14 05:30:47;;;;;;;7.57;6.97;;;;;;;7.86;nan;102065.19;5089732;28;20035;-62
2022/03/14 05:33:12;;;;;;;9.02;8.23;;;;;;;7.86;nan;102070.34;5089777;28;20077;-61
2022/03/14 05:35:38;;;;;;;8.93;8.10;;;;;;;7.84;nan;102077.13;5090048;28;20490;-63
2022/03/14 05:38:03;;;;;;;9.27;8.38;;;;;;;7.85;nan;102075.44;5089778;28;20059;-61
2022/03/14 05:40:30;;;;;;;9.65;8.75;;;;;;;7.85;nan;102078.91;5089831;28;20016;-61
2022/03/14 05:42:56;;;;;;;9.63;8.70;;;;;;;7.85;nan;102084.06;5089451;28;20020;-61
2022/03/14 05:45:22;;;;;;;10.77;8.43;;;;;;;7.87;nan;102092.81;5089588;28;20069;-62
2022/03/14 05:47:48;;;;;;;10.05;9.05;;;;;;;7.88;nan;102106.63;5089889;28;20464;-61
2022/03/14 05:50:14;;;;;;;10.07;8.98;;;;;;;7.87;nan;102100.56;5089601;28;20035;-61
2022/03/14 05:52:40;;;;;;;11.00;9.30;;;;;;;7.86;nan;102110.78;5089327;28;20027;-61
2022/03/14 05:55:05;;;;;;;11.30;9.48;;;;;;;7.85;nan;102111.56;5088150;28;20103;-60
2022/03/14 05:57:32;;;;;;;11.20;10.20;;;;;;;7.85;nan;102119.31;5087623;28;20031;-61
2022/03/14 05:59:57;;;;;;;11.55;9.73;;;;;;;7.85;nan;102115.03;5087724;28;20091;-61
2022/03/14 06:02:24;;;;;;;10.70;9.70;;;;;;;7.84;nan;102127.84;5087487;28;20107;-60
2022/03/14 06:04:51;;;;;;;10.77;9.68;;;;;;;7.83;nan;102132.13;5087284;28;20092;-61
2022/03/14 06:07:19;;;;;;;11.70;10.60;;;;;;;7.83;nan;102128.63;5088318;28;20384;-61
2022/03/14 06:09:46;;;;;;;11.90;10.50;;;;;;;7.82;nan;102135.50;5086539;28;20024;-60
2022/03/14 06:12:11;;;;;;;12.55;11.35;;;;;;;7.84;nan;102138.19;5086986;28;20044;-61
2022/03/14 06:14:37;;;;;;;12.20;10.98;;;;;;;7.84;nan;102138.19;5089144;28;20060;-61
2022/03/14 06:17:02;;;;;;;12.68;11.38;;;;;;;7.84;nan;102145.91;5089173;28;20055;-61
2022/03/14 06:19:28;;;;;;;13.02;11.77;;;;;;;7.86;nan;102147.78;5089960;28;20020;-62
2022/03/14 06:21:53;;;;;;;14.10;12.30;;;;;;;7.85;nan;102145.13;5093379;28;20115;-61
2022/03/14 06:24:18;;;;;;;13.63;12.38;;;;;;;7.85;nan;102150.28;5093001;28;20027;-61
2022/03/14 06:26:44;;;;;;;13.77;12.38;;;;;;;7.86;nan;102163.28;5093001;28;20027;-60
2022/03/14 06:29:09;;;;;;;13.55;12.20;;;;;;;7.88;nan;102172.00;5093145;28;20352;-61
2022/03/14 06:31:35;;;;;;;14.82;13.23;;;;;;;7.89;nan;102176.41;5092975;28;20036;-61
2022/03/14 06:34:00;;;;;;;15.38;13.30;;;;;;;7.89;nan;102168.66;5093220;28;20024;-62
2022/03/14 06:36:29;;;;;;;14.50;13.02;;;;;;;7.91;nan;102174.81;5092854;28;20027;-61
2022/03/14 06:38:57;;;;;;;16.48;13.73;;;;;;;7.93;nan;102180.94;5092882;28;20019;-61
2022/03/14 06:41:23;;;;;;;14.32;13.02;;;;;;;7.94;nan;102181.84;5092705;28;20369;-61
2022/03/14 06:43:49;;;;;;;16.77;14.82;;;;;;;7.92;nan;102184.34;5092610;28;20023;-61
2022/03/14 06:46:14;;;;;;;16.67;14.43;;;;;;;7.95;nan;102182.75;5092915;28;20103;-61
2022/03/14 06:48:41;;;;;;;17.77;13.40;;;;;;;7.96;nan;102181.94;5092891;28;20422;-61
2022/03/14 06:51:07;;;;;;;16.05;13.70;;;;;;;7.97;nan;102181.16;5092513;28;20020;-60
2022/03/14 06:53:32;;;;;;;15.40;13.77;;;;;;;8.00;nan;102186.50;5092582;28;20031;-62
2022/03/14 06:55:58;;;;;;;15.05;13.30;;;;;;;7.98;nan;102194.16;5092343;28;20051;-61
2022/03/14 06:58:23;;;;;;;18.35;13.90;;;;;;;8.00;nan;102197.75;5091941;28;20066;-62
2022/03/14 07:00:49;;;;;;;15.80;13.00;;;;;;;8.00;nan;102196.84;5092684;28;20456;-61
2022/03/14 07:03:14;;;;;;;14.43;12.90;;;;;;;8.00;nan;102207.16;5092550;28;20028;-61
2022/03/14 07:05:40;;;;;;;14.15;12.60;;;;;;;7.98;nan;102212.25;5092165;28;20040;-61
2022/03/14 07:08:05;;;;;;;14.40;12.68;;;;;;;8.01;nan;102216.69;5092806;28;20020;-62
2022/03/14 07:10:31;;;;;;;19.83;13.70;;;;;;;8.02;nan;102213.34;5092171;28;20468;-61
2022/03/14 07:12:56;;;;;;;14.18;12.50;;;;;;;8.02;nan;102218.50;5091871;28;20020;-62
2022/03/14 07:15:25;;;;;;;15.57;11.55;;;;;;;8.04;nan;102219.50;5091837;28;20464;-61
2022/03/14 07:17:51;;;;;;;14.90;13.45;;;;;;;8.04;nan;102209.16;5092679;28;20020;-61
2022/03/14 07:20:19;;;;;;;15.13;13.05;;;;;;;8.06;nan;102223.03;5092009;28;20043;-61
2022/03/14 07:22:56;;;;;;;13.98;12.57;;;;;;;8.11;nan;102226.81;5091838;28;20365;-61
2022/03/14 07:25:29;;;;;;;14.35;12.85;;;;;;;8.13;nan;102227.81;5092349;28;20040;-61
2022/03/14 07:27:58;;;;;;;15.07;13.40;;;;;;;8.13;nan;102230.38;5092158;28;20055;-61
2022/03/14 07:30:24;;;;;;;16.17;12.48;;;;;;;8.14;nan;102224.44;5092193;28;20059;-61
2022/03/14 07:32:50;;;;;;;15.18;12.48;;;;;;;8.20;nan;102231.69;5092104;28;20475;-61
2022/03/14 07:35:16;;;;;;;14.05;12.63;;;;;;;8.20;nan;102234.28;5091503;28;20115;-61
2022/03/14 07:37:42;;;;;;;14.70;12.27;;;;;;;8.22;nan;102235.25;5091763;28;20065;-61
2022/03/14 07:40:09;;;;;;;14.23;12.43;;;;;;;8.22;nan;102235.25;5091587;28;20031;-62
2022/03/14 07:42:39;;;;;;;14.48;12.95;;;;;;;8.23;nan;102236.16;5091774;28;20028;-62
2022/03/14 07:45:05;;;;;;;16.17;13.00;;;;;;;8.22;nan;102230.09;5091565;28;20167;-61
2022/03/14 07:47:31;;;;;;;14.32;12.80;;;;;;;8.25;nan;102235.47;5091742;28;20059;-61
2022/03/14 07:49:56;;;;;;;16.48;13.23;;;;;;;8.31;nan;102242.69;5091466;28;20032;-61
2022/03/14 07:52:21;;;;;;;16.30;13.40;;;;;;;8.34;nan;102245.50;5091515;28;20067;-61
2022/03/14 07:54:47;;;;;;;14.45;13.10;;;;;;;8.39;nan;102249.25;5091492;28;20107;-61
2022/03/14 07:57:12;;;;;;;17.30;13.05;;;;;;;8.43;nan;102258.09;5091209;28;20354;-61
2022/03/14 07:59:38;;;;;;;19.60;14.07;;;;;;;8.46;nan;102255.69;5091309;28;20111;-61
2022/03/14 08:02:03;;;;;;;17.02;13.30;;;;;;;8.50;nan;102268.03;5091283;28;20043;-61
2022/03/14 08:04:29;;;;;;;16.80;13.18;;;;;;;8.52;nan;102266.44;5091066;28;20054;-61
2022/03/14 08:06:54;;;;;;;14.57;13.07;;;;;;;8.56;nan;102275.31;5091325;28;20455;-61
2022/03/14 08:09:21;;;;;;;14.73;12.85;;;;;;;8.56;nan;102277.00;5091667;28;20028;-61
2022/03/14 08:11:46;;;;;;;15.13;13.25;;;;;;;8.57;nan;102277.09;5091254;28;20606;-61
2022/03/14 08:14:11;;;;;;;17.17;13.52;;;;;;;8.56;nan;102283.06;5091279;28;20093;-62
2022/03/14 08:16:37;;;;;;;18.30;13.98;;;;;;;8.59;nan;102280.66;5091127;28;20078;-62
2022/03/14 08:19:03;;;;;;;14.73;13.18;;;;;;;8.58;nan;102291.78;5090985;28;20020;-61
2022/03/14 08:21:28;;;;;;;18.70;13.48;;;;;;;8.60;nan;102297.94;5091125;28;20028;-61
2022/03/14 08:23:53;;;;;;;17.17;13.98;;;;;;;8.57;nan;102297.75;5072644;28;20028;-61
2022/03/14 08:26:19;;;;;;;16.73;14.35;;;;;;;8.58;nan;102304.69;5090835;28;20255;-61
2022/03/14 08:28:44;;;;;;;18.25;14.80;;;;;;;8.57;nan;102300.34;5090508;28;20020;-62
2022/03/14 08:31:11;;;;;;;15.73;14.07;;;;;;;8.60;nan;102307.41;5090860;28;20418;-61
2022/03/14 08:33:40;;;;;;;16.48;14.05;;;;;;;8.62;nan;102311.88;5090829;28;20102;-61
2022/03/14 08:36:06;;;;;;;15.68;13.90;;;;;;;8.56;nan;102318.34;5090812;28;20181;-62
2022/03/14 08:38:32;;;;;;;18.30;13.82;;;;;;;8.57;nan;102318.44;5090863;28;20028;-61
2022/03/14 08:40:57;;;;;;;16.38;14.00;;;;;;;8.63;nan;102316.22;5072598;28;20032;-61
2022/03/14 08:43:23;;;;;;;20.13;13.50;;;;;;;8.69;nan;102327.78;5090041;28;20107;-61
2022/03/14 08:45:48;;;;;;;16.13;12.52;;;;;;;8.72;nan;102331.44;5090681;28;20455;-61
2022/03/14 08:48:13;;;;;;;15.88;13.25;;;;;;;8.74;nan;102339.28;5090683;28;20166;-61
2022/03/14 08:50:40;;;;;;;20.95;13.77;;;;;;;8.73;nan;102337.50;5090485;28;20032;-61
2022/03/14 08:53:06;;;;;;;16.73;13.85;;;;;;;8.80;nan;102336.19;5090453;28;20065;-62
2022/03/14 08:55:32;;;;;;;18.33;13.63;;;;;;;8.86;nan;102350.41;5090319;28;20032;-61
2022/03/14 08:57:58;;;;;;;14.63;13.02;;;;;;;8.94;nan;102348.28;5090148;28;20036;-60
2022/03/14 09:00:27;;;;;;;14.07;10.82;;;;;;;9.02;nan;102351.38;5090631;28;20047;-61
2022/03/14 09:02:53;;;;;;;14.45;11.45;;;;;;;9.12;nan;102353.72;5090312;28;20044;-60
2022/03/14 09:05:18;;;;;;;15.10;12.07;;;;;;;9.20;nan;102366.25;5089991;28;20048;-61
2022/03/14 09:07:44;;;;;;;17.38;11.00;;;;;;;9.26;nan;102366.63;5090442;28;20020;-59
2022/03/14 09:10:12;;;;;;;11.02;9.43;;;;;;;9.28;nan;102365.03;5090152;28;20385;-61
2022/03/14 09:12:38;;;;;;;15.30;11.32;;;;;;;9.31;nan;102374.69;5090189;28;20429;-61
2022/03/14 09:15:04;;;;;;;13.98;10.73;;;;;;;9.33;nan;102373.97;5089881;28;20020;-61
2022/03/14 09:17:31;;;;;;;14.60;10.63;;;;;;;9.27;nan;102383.94;5090331;28;20036;-61
2022/03/14 09:19:57;;;;;;;12.93;10.23;;;;;;;9.28;nan;102384.84;5090340;28;20115;-61
2022/03/14 09:22:23;;;;;;;14.32;9.93;;;;;;;9.33;nan;102392.09;5089971;28;20102;-61
2022/03/14 09:24:49;;;;;;;11.52;9.63;;;;;;;9.44;nan;102392.75;5089953;28;20140;-61
2022/03/14 09:27:14;;;;;;;14.55;10.30;;;;;;;9.52;nan;102388.03;5089896;28;20028;-61
2022/03/14 09:29:39;;;;;;;13.57;9.43;;;;;;;9.64;nan;102394.78;5090114;28;20373;-61
2022/03/14 09:32:06;;;;;;;11.00;9.40;;;;;;;9.67;nan;102395.84;5089820;28;20024;-62
2022/03/14 09:34:31;;;;;;;13.15;8.90;;;;;;;9.83;nan;102396.78;5089714;28;20012;-61
2022/03/14 09:36:57;;;;;;;11.13;9.10;;;;;;;10.04;nan;102407.50;5089596;28;20380;-61
2022/03/14 09:39:23;;;;;;;10.15;8.65;;;;;;;10.28;nan;102404.59;5089719;28;20016;-61
2022/03/14 09:41:50;;;;;;;9.88;8.55;;;;;;;10.47;nan;102412.53;5089883;28;20128;-61
2022/03/14 09:44:19;;;;;;;11.30;7.90;;;;;;;10.61;nan;102410.78;5089644;28;20020;-60
2022/03/14 09:46:47;;;;;;;10.13;6.32;;;;;;;10.63;nan;102411.75;5090373;28;20073;-61
2022/03/14 09:49:14;;;;;;;10.60;6.60;;;;;;;10.62;nan;102412.53;5089639;28;20258;-61
2022/03/14 09:51:41;;;;;;;8.75;6.22;;;;;;;10.57;nan;102426.16;5089663;28;20044;-60
2022/03/14 09:54:09;;;;;;;11.93;6.85;;;;;;;10.47;nan;102436.72;5089652;28;20483;-62
2022/03/14 09:56:34;;;;;;;8.68;7.10;;;;;;;10.40;nan;102434.59;5093620;28;20038;-61
2022/03/14 09:59:00;;;;;;;12.25;7.32;;;;;;;10.35;nan;102454.16;5093884;28;20023;-61
2022/03/14 10:01:27;;;;;;;9.10;6.70;;;;;;;10.33;nan;102452.38;5093992;28;20078;-61
2022/03/14 10:03:54;;;;;;;8.05;6.82;;;;;;;10.32;nan;102457.47;5093064;28;20048;-61
2022/03/14 10:06:20;;;;;;;12.88;6.93;;;;;;;10.34;nan;102463.66;5093859;28;20036;-62
2022/03/14 10:08:45;;;;;;;10.80;6.93;;;;;;;10.36;nan;102458.56;5093747;28;20034;-61
2022/03/14 10:11:11;;;;;;;9.13;7.15;;;;;;;10.30;nan;102472.94;5093614;28;20016;-62
2022/03/14 10:13:37;;;;;;;9.98;6.55;;;;;;;10.26;nan;102470.97;5093191;28;20024;-61
2022/03/14 10:16:03;;;;;;;10.02;7.53;;;;;;;10.23;nan;102470.78;5093491;28;20473;-62
2022/03/14 10:18:35;;;;;;;12.57;8.27;;;;;;;10.20;nan;102466.31;5093141;28;20034;-61
2022/03/14 10:21:05;;;;;;;9.15;7.82;;;;;;;10.18;nan;102465.31;5093493;28;20020;-60
2022/03/14 10:23:41;;;;;;;11.10;7.82;;;;;;;10.14;nan;102467.66;5093379;28;20376;-62
2022/03/14 10:26:11;;;;;;;11.50;7.63;;;;;;;10.17;nan;102462.63;5093254;28;20027;-62
2022/03/14 10:28:38;;;;;;;10.88;7.35;;;;;;;10.23;nan;102475.06;5093329;28;20520;-62
2022/03/14 10:31:05;;;;;;;9.88;8.00;;;;;;;10.27;nan;102488.28;5093444;28;20507;-62
2022/03/14 10:33:32;;;;;;;11.73;6.55;;;;;;;10.34;nan;102486.97;5093186;28;20028;-61
2022/03/14 10:35:58;;;;;;;10.50;6.38;;;;;;;10.41;nan;102485.63;5093103;28;20110;-61
2022/03/14 10:38:25;;;;;;;8.52;6.60;;;;;;;10.36;nan;102489.66;5092963;28;20534;-62
2022/03/14 10:40:51;;;;;;;9.25;6.97;;;;;;;10.42;nan;102497.78;5092870;28;20039;-61
2022/03/14 10:43:32;;;;;;;9.45;7.43;;;;;;;10.43;nan;102500.47;5092911;28;20031;-61
2022/03/14 10:45:59;;;;;;;9.23;7.00;;;;;;;10.54;nan;102503.72;5092803;28;20027;-61
2022/03/14 10:48:41;;;;;;;9.18;7.40;;;;;;;10.79;nan;102505.16;5092715;28;20051;-62
2022/03/14 10:51:14;;;;;;;9.27;6.95;;;;;;;11.17;nan;102502.09;5093103;28;20043;-61
2022/03/14 10:53:42;;;;;;;9.30;7.30;;;;;;;11.50;nan;102509.94;5092826;28;20020;-61
2022/03/14 10:56:08;;;;;;;8.85;7.85;;;;;;;11.57;nan;102503.38;5092919;28;20016;-62
2022/03/14 10:58:34;;;;;;;10.88;6.60;;;;;;;11.94;nan;102511.38;5092644;28;20036;-61
2022/03/14 11:01:18;;;;;;;8.13;5.45;;;;;;;12.00;nan;102503.88;5092579;28;20050;-61
2022/03/14 11:03:45;;;;;;;10.43;6.30;;;;;;;12.15;nan;102519.44;5092562;28;20107;-61
2022/03/14 11:06:15;;;;;;;10.70;6.57;;;;;;;11.87;nan;102512.75;5092019;28;20442;-62
2022/03/14 11:08:51;;;;;;;7.45;6.18;;;;;;;12.05;nan;102514.53;5092331;28;20102;-62
2022/03/14 11:11:16;;;;;;;11.68;6.78;;;;;;;11.96;nan;102513.22;5092322;28;20028;-62
2022/03/14 11:13:49;;;;;;;12.93;6.82;;;;;;;11.95;nan;102513.13;5092066;28;20133;-62
2022/03/14 11:16:20;;;;;;;7.68;5.70;;;;;;;12.04;nan;102518.84;5092509;28;20364;-61
2022/03/14 11:18:47;;;;;;;6.90;5.50;;;;;;;12.01;nan;102509.19;5092561;28;20230;-61
2022/03/14 11:21:20;;;;;;;6.10;5.53;;;;;;;12.17;nan;102511.72;5092461;28;20031;-62
2022/03/14 11:23:49;;;;;;;8.07;5.22;;;;;;;12.21;nan;102513.66;5092147;28;20522;-61
2022/03/14 11:26:16;;;;;;;8.00;4.78;;;;;;;12.29;nan;102511.44;5092180;28;20051;-61
2022/03/14 11:28:44;;;;;;;8.00;5.05;;;;;;;12.05;nan;102511.94;5092037;28;20031;-62
2022/03/14 11:31:10;;;;;;;8.60;5.13;;;;;;;11.92;nan;102510.38;5091944;28;20432;-62
2022/03/14 11:33:35;;;;;;;7.68;4.93;;;;;;;11.84;nan;102515.16;5091913;28;20027;-61
2022/03/14 11:36:03;;;;;;;8.63;4.60;;;;;;;11.92;nan;102515.59;5091806;28;20126;-62
2022/03/14 11:38:30;;;;;;;8.45;4.70;;;;;;;12.09;nan;102513.88;5091990;28;20027;-62